Aviation Digital Data Service (ADDS)

Output produced by METARs form (1418 UTC 19 January 2019)
found at http://www.aviationweather.gov/metar/data/
 
Forecast for: SOCA (CAYENNE/ROCHAMBE, GY)
Text: TAF SOCA 191000Z 1912/2012 06010KT 9999 SCT025 SCT060
Forecast period: 1200 to 2300 UTC 19 January 2019
Forecast type: FROM: standard forecast or significant change
Winds: from the ENE (60 degrees) at 12 MPH (10 knots; 5.1 m/s)
Visibility: 6 or more miles 10+ km)
Ceiling: at least 12,000 feet AGL
Clouds: scattered clouds at 2500 feet AGL
scattered clouds at 6000 feet AGL
Weather: no significant weather forecast for this period
Text: PROB30
Forecast period: 1200 UTC 19 January 2019 to 1200 UTC 20 January 2019
Forecast type: TEMPORARY: The following changes expected for less than half the time period
Visibility: missing
Ceiling: at least 12,000 feet AGL
Clouds: few clouds at 1200 feet AGL
Weather: SHRA  (rain showers)
Text: TEMPO 1912/2012 SHRA FEW012TCU
Forecast period: 2300 UTC 19 January 2019 to 1200 UTC 20 January 2019
Forecast type: FROM: standard forecast or significant change
Winds: variable direction winds at 2 MPH (2 knots; 1.0 m/s)
Visibility: 6 or more miles 10+ km)
Ceiling: at least 12,000 feet AGL
Clouds: scattered clouds at 2000 feet AGL
scattered clouds at 4000 feet AGL
Weather: no significant weather forecast for this period